Pagina principale
METAR-TAF:

METAR-TAF

Aeroporti :

Buochs, Svizzera

latitudine: 46-58-28N, longitudine: 8-23-49E, altezza: 449 m

Osservazione

Il bollettino è stato emesso 24 minuti fa, alle 19:50 UTC
Vento 4 kt da ovest/sud-ovest, variando fra sud/sud-ovest e ovest
Temperature 26°C
Umidità 61%
Pressione 1024 hPa
Visibilità 10 km o più
nessuna nube inferiore a 1500 m e nessun cumulonembo

METAR: LSZC 261950Z AUTO 25004KT 210V280 CAVOK 26/18 Q1024

Ora: 22:14 (20:14 UTC)

Previsione

Il bollettino è stato emesso 5 ore e 49 minuti fa, alle 14:25 UTC
Previsione valida dal 26 alle 15 UTC al 26 alle 24 UTC
Vento 5 kt da est/nord-est
Visibilità 10 km o più
nessuna nube inferiore a 1500 m e nessun cumulonembo

TAF: LSZC 261425Z 2615/2624 07005KT CAVOK

Osservazioni e previsioni meteorologiche di più di 4000 aeroporti (messaggi METAR e TAF).

Le stazioni disponibili sono rappresentate dai dischi gialli e rossi sulla carta.

Puntare il mouse per vedere il nome della stazione.

Clicca sopra per visualizzare le osservazioni e previsioni meteorologiche.

Per cambiare la mappa : fare clic sui pulsanti verdi con una croce nera per ingrandire, il pulsante verde con un trattino per diminuire, o sulla freccia verde per le mappe adiacenti.


METAR-TAF: